Time;durP1;ratioP1;P1;durP2;ratioP2;P2;SDS_P1;SDS_P2;PMS_P1;PMS_P2;Temp;Humidity;BMP_temperature;BMP_pressure;BME280_temperature;BME280_humidity;BME280_pressure;Samples;Min_cycle;Max_cycle;Signal;HPM_P1;HPM_P2
2024/01/18 00:00:41;;;;;;;5.20;3.10;;;9.10;42.30;;;;;;5028424;28;20481;-69
2024/01/18 00:03:08;;;;;;;5.37;2.80;;;9.10;42.40;;;;;;5026303;28;20544;-69
2024/01/18 00:05:34;;;;;;;4.87;2.50;;;9.10;42.40;;;;;;5028589;28;20463;-68
2024/01/18 00:08:03;;;;;;;5.03;2.40;;;9.10;42.50;;;;;;5025773;28;20475;-69
2024/01/18 00:10:30;;;;;;;5.10;2.63;;;9.10;42.60;;;;;;5026587;28;20570;-69
2024/01/18 00:12:57;;;;;;;5.37;2.93;;;9.10;42.60;;;;;;5025709;28;20971;-69
2024/01/18 00:15:24;;;;;;;5.50;2.70;;;9.10;42.70;;;;;;5029784;28;20451;-68
2024/01/18 00:17:51;;;;;;;6.00;2.70;;;9.10;42.70;;;;;;5022783;28;20482;-69
2024/01/18 00:20:17;;;;;;;4.70;2.30;;;9.10;42.80;;;;;;5029222;28;20482;-68
2024/01/18 00:22:44;;;;;;;4.67;2.40;;;9.10;42.70;;;;;;5027689;28;20455;-69
2024/01/18 00:25:13;;;;;;;5.70;2.10;;;9.10;42.80;;;;;;5025108;28;20465;-69
2024/01/18 00:27:39;;;;;;;4.33;1.90;;;9.10;42.70;;;;;;5028670;28;20482;-69
2024/01/18 00:30:07;;;;;;;6.67;2.43;;;9.20;42.60;;;;;;5028806;28;20475;-69
2024/01/18 00:32:34;;;;;;;4.90;1.90;;;9.20;42.50;;;;;;5028488;28;20507;-69
2024/01/18 00:35:01;;;;;;;6.67;2.27;;;9.20;42.70;;;;;;5028004;28;20570;-71
2024/01/18 00:37:28;;;;;;;4.80;2.10;;;9.20;42.50;;;;;;5029982;28;20952;-69
2024/01/18 00:39:54;;;;;;;3.80;1.50;;;9.20;42.30;;;;;;5029018;28;21897;-69
2024/01/18 00:42:22;;;;;;;4.27;1.87;;;9.20;42.30;;;;;;5026826;28;20471;-69
2024/01/18 00:44:49;;;;;;;4.17;1.77;;;9.20;42.40;;;;;;5027479;28;20576;-69
2024/01/18 00:47:16;;;;;;;3.90;1.50;;;9.20;42.40;;;;;;5028249;28;20569;-68
2024/01/18 00:49:43;;;;;;;4.00;1.80;;;9.20;42.40;;;;;;5029937;28;20545;-68
2024/01/18 00:52:10;;;;;;;3.93;1.50;;;9.20;42.30;;;;;;5028034;28;20459;-69
2024/01/18 00:54:37;;;;;;;4.33;1.70;;;9.20;42.50;;;;;;5027530;28;20463;-69
2024/01/18 00:57:04;;;;;;;3.80;1.30;;;9.30;42.60;;;;;;5030132;28;20479;-69
2024/01/18 00:59:32;;;;;;;4.07;1.53;;;9.20;42.50;;;;;;5029365;28;20807;-69
2024/01/18 01:01:59;;;;;;;3.63;1.47;;;9.20;42.60;;;;;;5037230;28;20551;-70
2024/01/18 01:04:25;;;;;;;3.50;1.27;;;9.20;42.30;;;;;;5055153;28;20464;-69
2024/01/18 01:06:52;;;;;;;3.80;1.40;;;9.30;42.50;;;;;;5041577;28;20565;-70
2024/01/18 01:09:19;;;;;;;3.77;1.60;;;9.30;42.30;;;;;;5028087;28;20860;-69
2024/01/18 01:11:46;;;;;;;3.60;1.50;;;9.30;42.20;;;;;;5026427;28;20995;-69
2024/01/18 01:14:13;;;;;;;3.40;1.10;;;9.30;42.00;;;;;;5023882;28;20541;-69
2024/01/18 01:16:41;;;;;;;3.80;1.67;;;9.30;42.00;;;;;;5027914;28;20999;-69
2024/01/18 01:19:08;;;;;;;3.70;1.40;;;9.30;42.00;;;;;;5027374;28;20470;-69
2024/01/18 01:21:35;;;;;;;4.53;1.73;;;9.30;42.00;;;;;;5028473;28;20546;-70
2024/01/18 01:24:02;;;;;;;3.60;1.27;;;9.30;41.90;;;;;;5029090;28;20459;-69
2024/01/18 01:26:29;;;;;;;3.73;1.37;;;9.30;41.80;;;;;;5028497;28;20487;-69
2024/01/18 01:28:56;;;;;;;4.03;1.43;;;9.30;41.90;;;;;;5022213;28;21042;-69
2024/01/18 01:31:23;;;;;;;3.57;1.37;;;9.30;41.90;;;;;;5022373;28;20482;-69
2024/01/18 01:33:51;;;;;;;3.60;1.30;;;9.30;41.80;;;;;;5027970;28;20839;-69
2024/01/18 01:36:18;;;;;;;3.90;1.37;;;9.30;41.90;;;;;;5021860;28;20463;-70
2024/01/18 01:38:44;;;;;;;3.70;1.37;;;9.30;42.00;;;;;;5025746;28;20741;-70
2024/01/18 01:41:11;;;;;;;3.50;1.20;;;9.20;42.00;;;;;;5026629;28;20546;-70
2024/01/18 01:43:58;;;;;;;3.53;1.30;;;9.20;41.90;;;;;;5027354;28;21196;-70
2024/01/18 01:46:25;;;;;;;4.47;1.70;;;9.20;42.00;;;;;;5026349;28;20466;-69
2024/01/18 01:48:56;;;;;;;3.20;1.00;;;9.20;41.90;;;;;;5023984;28;21295;-70
2024/01/18 01:51:23;;;;;;;3.70;1.10;;;9.20;41.90;;;;;;5024379;28;20485;-69
2024/01/18 01:53:50;;;;;;;4.27;2.13;;;9.20;41.70;;;;;;5024946;28;20550;-69
2024/01/18 01:56:17;;;;;;;3.47;1.10;;;9.20;41.90;;;;;;5028307;28;20557;-69
2024/01/18 01:58:44;;;;;;;3.97;1.60;;;9.20;41.70;;;;;;5026573;28;20462;-69
2024/01/18 02:01:11;;;;;;;3.37;1.20;;;9.20;41.70;;;;;;5027378;28;20487;-68
2024/01/18 02:03:38;;;;;;;3.30;1.20;;;9.20;41.70;;;;;;5025352;28;20468;-69
2024/01/18 02:06:06;;;;;;;3.60;1.30;;;9.20;41.50;;;;;;5026023;28;21143;-69
2024/01/18 02:08:33;;;;;;;3.87;1.33;;;9.20;42.10;;;;;;5024254;28;20467;-69
2024/01/18 02:11:01;;;;;;;3.80;1.00;;;9.20;41.30;;;;;;5029588;28;20481;-69
2024/01/18 02:13:28;;;;;;;3.13;0.87;;;9.20;41.40;;;;;;5026928;28;20843;-69
2024/01/18 02:15:55;;;;;;;3.23;0.83;;;9.20;41.40;;;;;;5027738;28;20580;-69
2024/01/18 02:18:21;;;;;;;3.70;0.97;;;9.10;41.30;;;;;;5028443;28;20870;-70
2024/01/18 02:20:48;;;;;;;3.20;0.90;;;9.10;41.20;;;;;;5027317;28;20957;-68
2024/01/18 02:23:17;;;;;;;3.80;0.97;;;9.20;41.20;;;;;;5022600;28;20900;-69
2024/01/18 02:25:46;;;;;;;3.57;1.00;;;9.20;41.10;;;;;;5023245;28;20546;-69
2024/01/18 02:28:12;;;;;;;3.07;0.87;;;9.20;41.10;;;;;;5025073;28;20482;-70
2024/01/18 02:30:39;;;;;;;2.97;0.70;;;9.10;41.00;;;;;;5022821;28;20484;-68
2024/01/18 02:33:06;;;;;;;3.20;1.10;;;9.10;41.10;;;;;;5030733;28;20469;-68
2024/01/18 02:35:33;;;;;;;3.13;0.80;;;9.10;41.20;;;;;;5025391;28;20550;-69
2024/01/18 02:38:00;;;;;;;4.07;1.23;;;9.10;41.00;;;;;;5027585;28;20533;-69
2024/01/18 02:40:27;;;;;;;3.60;0.70;;;9.10;41.10;;;;;;5027700;28;20465;-68
2024/01/18 02:42:55;;;;;;;3.97;1.10;;;9.10;41.10;;;;;;5029962;28;20590;-69
2024/01/18 02:45:22;;;;;;;4.17;0.80;;;9.10;41.00;;;;;;5026636;28;20460;-69
2024/01/18 02:47:49;;;;;;;4.10;0.80;;;9.10;40.90;;;;;;5032927;28;20484;-69
2024/01/18 02:50:16;;;;;;;4.60;0.83;;;9.10;40.90;;;;;;5028002;28;20470;-68
2024/01/18 02:52:42;;;;;;;3.27;0.60;;;9.10;40.90;;;;;;5033617;28;20542;-69
2024/01/18 02:55:10;;;;;;;3.50;0.70;;;9.10;40.70;;;;;;5035314;28;20467;-69
2024/01/18 02:57:36;;;;;;;3.20;0.70;;;9.10;40.70;;;;;;5032831;28;20514;-69
2024/01/18 03:00:06;;;;;;;3.00;0.60;;;9.10;40.60;;;;;;5030802;28;20542;-69
2024/01/18 03:02:33;;;;;;;3.50;0.73;;;9.10;40.50;;;;;;5024839;28;20562;-69
2024/01/18 03:05:00;;;;;;;2.80;0.60;;;9.10;40.30;;;;;;5031802;28;20557;-68
2024/01/18 03:07:28;;;;;;;2.90;0.60;;;9.10;40.40;;;;;;5029883;28;20547;-68
2024/01/18 03:09:55;;;;;;;3.00;0.60;;;9.10;40.50;;;;;;5029411;28;21005;-69
2024/01/18 03:12:22;;;;;;;3.60;1.03;;;9.10;40.40;;;;;;5031661;28;21014;-69
2024/01/18 03:14:48;;;;;;;3.33;1.00;;;9.10;40.30;;;;;;5035179;28;21193;-69
2024/01/18 03:17:17;;;;;;;3.87;0.77;;;9.10;40.00;;;;;;5031995;28;20847;-69
2024/01/18 03:19:43;;;;;;;3.60;1.10;;;9.10;40.90;;;;;;5030004;28;20822;-68
2024/01/18 03:22:10;;;;;;;3.70;0.90;;;9.00;40.20;;;;;;5027736;28;20537;-68
2024/01/18 03:24:37;;;;;;;3.40;0.60;;;9.00;40.00;;;;;;5029703;22;20490;-69
2024/01/18 03:27:04;;;;;;;3.57;0.70;;;9.00;39.90;;;;;;5002958;28;20522;-69
2024/01/18 03:29:31;;;;;;;3.83;1.00;;;9.00;39.80;;;;;;5006179;28;20911;-69
2024/01/18 03:31:57;;;;;;;3.00;0.53;;;9.00;39.80;;;;;;5005007;28;20475;-69
2024/01/18 03:34:25;;;;;;;3.27;0.70;;;9.00;39.80;;;;;;5008305;28;20559;-69
2024/01/18 03:36:53;;;;;;;3.00;0.60;;;9.00;39.70;;;;;;5005119;28;20494;-69
2024/01/18 03:39:19;;;;;;;2.97;0.50;;;9.00;39.60;;;;;;5004664;28;20545;-69
2024/01/18 03:41:46;;;;;;;3.07;0.73;;;9.00;39.60;;;;;;5003047;28;20953;-69
2024/01/18 03:44:13;;;;;;;4.00;0.80;;;9.00;39.70;;;;;;5002464;28;20467;-69
2024/01/18 03:46:40;;;;;;;3.17;0.70;;;9.00;39.70;;;;;;5003252;28;20572;-69
2024/01/18 03:49:06;;;;;;;3.00;0.60;;;9.00;39.60;;;;;;5004776;28;20544;-69
2024/01/18 03:51:34;;;;;;;3.67;0.80;;;9.00;39.60;;;;;;5005172;28;20476;-69
2024/01/18 03:54:01;;;;;;;3.80;0.90;;;9.00;39.60;;;;;;5006075;28;20558;-69
2024/01/18 03:56:28;;;;;;;3.00;0.67;;;9.00;39.60;;;;;;5004230;28;20667;-69
2024/01/18 03:58:55;;;;;;;4.13;0.80;;;8.90;39.50;;;;;;5004032;28;20475;-68
2024/01/18 04:01:21;;;;;;;3.20;0.67;;;8.90;39.50;;;;;;5002127;28;20556;-69
2024/01/18 04:03:48;;;;;;;3.03;0.60;;;8.90;39.60;;;;;;5005026;28;20464;-69
2024/01/18 04:06:16;;;;;;;2.93;0.60;;;8.90;39.50;;;;;;5006697;28;20884;-69
2024/01/18 04:08:44;;;;;;;3.10;0.50;;;8.80;39.50;;;;;;5004847;28;20471;-69
2024/01/18 04:11:11;;;;;;;2.93;0.43;;;8.80;39.50;;;;;;5002156;28;20483;-69
2024/01/18 04:13:38;;;;;;;3.03;0.70;;;8.80;39.70;;;;;;5003520;28;20556;-69
2024/01/18 04:16:05;;;;;;;3.63;0.60;;;8.80;39.50;;;;;;5001103;28;20472;-69
2024/01/18 04:18:32;;;;;;;2.80;0.50;;;8.70;39.60;;;;;;5003406;28;21039;-69
2024/01/18 04:20:59;;;;;;;4.23;0.60;;;8.70;39.50;;;;;;5002968;28;20559;-69
2024/01/18 04:23:26;;;;;;;4.93;1.27;;;8.70;39.60;;;;;;5004353;28;20460;-69
2024/01/18 04:25:54;;;;;;;3.40;0.90;;;8.70;39.60;;;;;;5007292;28;20541;-69
2024/01/18 04:28:22;;;;;;;2.90;0.57;;;8.60;39.60;;;;;;5000640;28;20472;-69
2024/01/18 04:30:49;;;;;;;3.10;0.73;;;8.60;39.60;;;;;;5006422;28;20482;-69
2024/01/18 04:33:18;;;;;;;3.83;0.70;;;8.60;39.50;;;;;;5004351;28;20482;-69
2024/01/18 04:35:45;;;;;;;3.10;0.60;;;8.60;39.50;;;;;;5005914;28;20827;-69
2024/01/18 04:38:12;;;;;;;3.30;0.60;;;8.60;39.30;;;;;;5001928;28;20480;-69
2024/01/18 04:40:39;;;;;;;2.90;0.60;;;8.60;39.20;;;;;;5006013;28;20460;-69
2024/01/18 04:43:07;;;;;;;2.90;0.57;;;8.50;39.30;;;;;;5003378;28;20552;-69
2024/01/18 04:45:34;;;;;;;3.90;0.70;;;8.50;39.30;;;;;;5008488;28;20460;-69
2024/01/18 04:48:00;;;;;;;3.37;0.80;;;8.40;39.30;;;;;;5006113;28;20484;-69
2024/01/18 04:50:27;;;;;;;3.43;0.70;;;8.50;39.40;;;;;;5003565;28;20575;-68
2024/01/18 04:52:54;;;;;;;2.97;0.60;;;8.40;39.40;;;;;;5008838;28;20484;-68
2024/01/18 04:55:21;;;;;;;3.83;0.80;;;8.40;39.50;;;;;;5006641;28;20952;-68
2024/01/18 04:57:50;;;;;;;7.33;0.83;;;8.30;39.50;;;;;;5001094;28;20495;-68
2024/01/18 05:00:18;;;;;;;3.00;0.60;;;8.30;39.70;;;;;;5005153;28;20461;-69
2024/01/18 05:02:45;;;;;;;3.17;0.60;;;8.30;39.80;;;;;;5028988;28;20455;-69
2024/01/18 05:05:12;;;;;;;3.27;0.80;;;8.30;39.60;;;;;;5028572;28;20455;-69
2024/01/18 05:07:41;;;;;;;5.77;0.60;;;8.30;39.70;;;;;;5024773;28;20516;-69
2024/01/18 05:10:09;;;;;;;3.00;0.60;;;8.20;39.50;;;;;;5025319;28;20469;-69
2024/01/18 05:12:36;;;;;;;4.33;0.60;;;8.20;39.60;;;;;;5028675;28;21131;-69
2024/01/18 05:15:03;;;;;;;3.40;0.77;;;8.20;39.60;;;;;;5023593;28;20469;-69
2024/01/18 05:17:35;;;;;;;5.57;1.10;;;8.20;39.60;;;;;;5028105;28;20479;-68
2024/01/18 05:20:03;;;;;;;3.03;0.60;;;8.10;39.50;;;;;;5025760;28;20463;-69
2024/01/18 05:22:31;;;;;;;3.40;0.77;;;8.10;39.60;;;;;;5028145;28;20455;-69
2024/01/18 05:24:58;;;;;;;3.00;0.50;;;8.10;39.60;;;;;;5025358;28;20489;-69
2024/01/18 05:27:27;;;;;;;3.40;0.70;;;8.10;39.60;;;;;;5028038;28;20557;-69
2024/01/18 05:29:54;;;;;;;4.10;0.80;;;8.20;39.60;;;;;;5026885;28;21106;-69
2024/01/18 05:32:21;;;;;;;3.10;0.60;;;8.20;39.50;;;;;;5003404;28;20483;-69
2024/01/18 05:34:49;;;;;;;3.60;0.80;;;8.20;39.50;;;;;;4999499;28;21038;-68
2024/01/18 05:37:22;;;;;;;3.70;0.60;;;8.20;39.40;;;;;;4998668;28;20997;-68
2024/01/18 05:39:50;;;;;;;3.27;0.70;;;8.20;39.40;;;;;;5005811;28;20464;-69
2024/01/18 05:42:18;;;;;;;4.60;0.60;;;8.20;39.30;;;;;;5004923;28;20534;-69
2024/01/18 05:44:45;;;;;;;3.80;1.00;;;8.30;39.30;;;;;;5006655;28;20548;-69
2024/01/18 05:47:12;;;;;;;4.27;1.03;;;8.20;39.30;;;;;;5004089;28;20493;-69
2024/01/18 05:49:39;;;;;;;3.00;0.70;;;8.20;39.20;;;;;;5007363;28;20558;-69
2024/01/18 05:52:07;;;;;;;3.60;1.00;;;8.30;39.10;;;;;;5007994;28;20483;-70
2024/01/18 05:54:34;;;;;;;3.60;0.70;;;8.20;39.10;;;;;;5009248;28;20828;-69
2024/01/18 05:57:02;;;;;;;3.30;0.80;;;8.30;39.10;;;;;;5001091;28;20494;-70
2024/01/18 05:59:29;;;;;;;3.80;0.73;;;8.30;39.00;;;;;;5003857;28;20805;-70
2024/01/18 06:01:56;;;;;;;3.53;0.50;;;8.20;38.90;;;;;;5001806;28;20472;-70
2024/01/18 06:04:24;;;;;;;3.50;0.70;;;8.20;38.90;;;;;;5003135;28;20748;-70
2024/01/18 06:06:50;;;;;;;3.00;0.60;;;8.20;38.90;;;;;;5007675;28;20494;-70
2024/01/18 06:09:19;;;;;;;5.93;0.80;;;8.20;38.90;;;;;;5007900;28;20470;-69
2024/01/18 06:11:46;;;;;;;3.70;0.90;;;8.20;38.80;;;;;;5007001;28;20483;-71
2024/01/18 06:14:13;;;;;;;3.23;0.77;;;8.30;38.80;;;;;;5007576;28;20467;-72
2024/01/18 06:16:40;;;;;;;3.40;0.80;;;8.30;38.80;;;;;;5004699;28;20491;-72
2024/01/18 06:19:07;;;;;;;3.67;0.60;;;8.30;38.70;;;;;;5008552;28;20473;-72
2024/01/18 06:21:34;;;;;;;2.97;0.60;;;8.30;38.50;;;;;;5006777;28;20470;-72
2024/01/18 06:24:01;;;;;;;3.60;0.63;;;8.30;38.70;;;;;;5007077;28;20476;-74
2024/01/18 06:26:29;;;;;;;3.13;0.80;;;8.30;38.30;;;;;;5007703;28;21031;-72
2024/01/18 06:28:56;;;;;;;3.83;0.80;;;8.30;38.20;;;;;;5008723;28;20958;-72
2024/01/18 06:31:26;;;;;;;3.83;0.60;;;8.30;38.00;;;;;;5011520;28;21063;-72
2024/01/18 06:33:53;;;;;;;3.60;0.83;;;8.30;37.90;;;;;;5022873;28;20463;-73
2024/01/18 06:36:22;;;;;;;4.37;0.80;;;8.30;37.90;;;;;;5025934;28;20546;-73
2024/01/18 06:38:49;;;;;;;3.40;0.70;;;8.20;37.70;;;;;;5024345;28;20490;-72
2024/01/18 06:41:16;;;;;;;4.87;0.90;;;8.20;37.70;;;;;;5024157;28;20463;-72
2024/01/18 06:43:44;;;;;;;3.50;0.80;;;8.20;37.80;;;;;;5026222;28;20455;-72
2024/01/18 06:46:15;;;;;;;4.30;0.80;;;8.10;38.20;;;;;;5024769;28;20454;-73
2024/01/18 06:48:42;;;;;;;4.93;1.37;;;8.20;38.40;;;;;;5020514;28;20463;-71
2024/01/18 06:51:09;;;;;;;3.60;0.80;;;8.20;38.40;;;;;;5024950;28;20493;-72
2024/01/18 06:53:36;;;;;;;3.30;0.80;;;8.20;38.50;;;;;;5027230;28;20470;-72
2024/01/18 06:56:04;;;;;;;3.47;0.67;;;8.20;38.40;;;;;;5026931;28;20459;-73
2024/01/18 06:58:30;;;;;;;3.30;0.70;;;8.20;38.60;;;;;;5025256;28;20522;-72
2024/01/18 07:00:58;;;;;;;3.73;0.80;;;8.20;38.60;;;;;;5032985;28;20476;-72
2024/01/18 07:03:30;;;;;;;4.73;0.70;;;8.20;38.60;;;;;;5045368;28;20977;-73
2024/01/18 07:05:57;;;;;;;3.63;0.50;;;8.20;38.40;;;;;;5039402;28;20466;-72
2024/01/18 07:08:24;;;;;;;3.00;0.60;;;8.30;39.00;;;;;;5043112;28;20473;-72
2024/01/18 07:10:50;;;;;;;3.00;0.60;;;8.30;38.40;;;;;;5047399;28;20454;-72
2024/01/18 07:13:17;;;;;;;3.17;0.70;;;8.30;38.20;;;;;;5046119;28;20549;-72
2024/01/18 07:15:44;;;;;;;3.00;0.60;;;8.30;38.00;;;;;;5044150;28;20462;-72
2024/01/18 07:18:12;;;;;;;4.20;0.70;;;8.40;38.00;;;;;;5044668;28;20577;-72
2024/01/18 07:20:39;;;;;;;2.97;0.57;;;8.40;38.00;;;;;;5043650;28;20462;-72
2024/01/18 07:23:06;;;;;;;3.40;0.70;;;8.40;37.80;;;;;;5043100;28;20455;-73
2024/01/18 07:25:33;;;;;;;3.30;0.70;;;8.40;37.80;;;;;;5043107;28;20476;-69
2024/01/18 07:28:00;;;;;;;4.20;0.70;;;8.50;37.90;;;;;;5048845;28;20565;-68
2024/01/18 07:30:27;;;;;;;3.90;0.60;;;8.50;37.80;;;;;;5044205;28;20507;-70
2024/01/18 07:32:54;;;;;;;3.40;0.77;;;8.50;37.70;;;;;;5049679;28;20490;-69
2024/01/18 07:35:22;;;;;;;4.50;0.80;;;8.50;37.70;;;;;;5049806;28;20454;-68
2024/01/18 07:37:49;;;;;;;3.10;0.60;;;8.50;37.60;;;;;;5048089;28;20488;-69
2024/01/18 07:40:16;;;;;;;3.40;0.60;;;8.60;37.50;;;;;;5046720;28;20463;-69
2024/01/18 07:42:43;;;;;;;3.47;0.87;;;8.60;37.40;;;;;;5048097;28;20458;-69
2024/01/18 07:45:14;;;;;;;3.60;0.70;;;8.70;37.20;;;;;;5045668;28;20456;-68
2024/01/18 07:47:40;;;;;;;3.40;0.50;;;8.70;37.20;;;;;;5048662;28;20839;-67
2024/01/18 07:50:08;;;;;;;3.33;0.70;;;8.70;37.30;;;;;;5042206;28;20476;-67
2024/01/18 07:52:36;;;;;;;3.00;0.50;;;8.80;37.20;;;;;;5046128;28;20478;-68
2024/01/18 07:55:05;;;;;;;3.10;0.77;;;8.90;37.10;;;;;;5046421;28;20458;-68
2024/01/18 07:57:32;;;;;;;4.20;0.53;;;8.90;37.00;;;;;;5047798;28;20481;-67
2024/01/18 07:59:58;;;;;;;3.13;0.60;;;8.90;36.90;;;;;;5048473;28;20472;-68
2024/01/18 08:02:26;;;;;;;3.47;0.80;;;9.00;36.70;;;;;;5049081;28;20468;-68
2024/01/18 08:04:53;;;;;;;3.00;0.60;;;9.10;36.50;;;;;;5043734;28;20466;-68
2024/01/18 08:07:20;;;;;;;3.60;0.80;;;9.10;36.40;;;;;;5047464;28;20564;-67
2024/01/18 08:09:48;;;;;;;3.10;0.57;;;9.30;36.50;;;;;;5048017;28;20497;-70
2024/01/18 08:12:14;;;;;;;6.00;0.57;;;9.60;35.80;;;;;;5046977;28;20975;-68
2024/01/18 08:14:42;;;;;;;4.70;0.67;;;9.90;35.30;;;;;;5045997;28;20572;-69
2024/01/18 08:17:09;;;;;;;3.30;0.70;;;10.10;34.60;;;;;;5044770;28;20473;-68
2024/01/18 08:19:36;;;;;;;3.30;0.50;;;10.30;33.70;;;;;;5048441;28;20468;-67
2024/01/18 08:22:03;;;;;;;3.17;0.70;;;10.30;33.00;;;;;;5047206;28;20472;-68
2024/01/18 08:24:30;;;;;;;2.97;0.53;;;10.40;32.70;;;;;;5040108;28;20492;-68
2024/01/18 08:26:58;;;;;;;3.37;0.60;;;10.50;32.40;;;;;;5044020;28;20533;-69
2024/01/18 08:29:26;;;;;;;4.33;0.53;;;10.60;32.30;;;;;;5048779;28;20462;-68
2024/01/18 08:31:54;;;;;;;3.43;0.50;;;10.60;31.80;;;;;;5044788;28;20486;-67
2024/01/18 08:34:20;;;;;;;2.87;0.50;;;10.60;31.10;;;;;;5046544;28;20489;-68
2024/01/18 08:36:48;;;;;;;3.10;0.53;;;10.60;31.30;;;;;;5048922;28;20473;-69
2024/01/18 08:39:15;;;;;;;3.73;0.70;;;10.70;31.50;;;;;;5049099;28;20512;-67
2024/01/18 08:41:42;;;;;;;2.90;0.50;;;10.70;31.40;;;;;;5043426;28;20462;-67
2024/01/18 08:44:10;;;;;;;2.93;0.47;;;10.60;31.10;;;;;;5048517;28;20677;-67
2024/01/18 08:46:38;;;;;;;2.80;0.40;;;10.60;31.20;;;;;;5048933;28;20501;-70
2024/01/18 08:49:05;;;;;;;3.10;0.53;;;10.60;30.90;;;;;;5045813;28;20464;-70
2024/01/18 08:51:32;;;;;;;3.20;0.47;;;10.70;31.10;;;;;;5046875;28;20567;-70
2024/01/18 08:53:59;;;;;;;2.90;0.50;;;10.80;30.90;;;;;;5044095;28;20477;-70
2024/01/18 08:56:26;;;;;;;2.90;0.50;;;10.90;30.70;;;;;;5046661;28;20800;-70
2024/01/18 08:58:52;;;;;;;2.80;0.40;;;11.00;29.90;;;;;;5049178;28;20458;-70
2024/01/18 09:01:20;;;;;;;2.80;0.40;;;11.10;29.80;;;;;;5048425;28;20572;-71
2024/01/18 09:03:47;;;;;;;3.20;0.50;;;11.20;29.30;;;;;;5049007;28;20454;-71
2024/01/18 09:06:14;;;;;;;2.90;0.60;;;11.30;28.50;;;;;;5047781;28;20468;-70
2024/01/18 09:08:41;;;;;;;2.90;0.60;;;11.50;28.30;;;;;;5046695;28;20589;-71
2024/01/18 09:11:08;;;;;;;3.00;0.50;;;11.50;27.50;;;;;;5049439;28;20568;-70
2024/01/18 09:13:35;;;;;;;4.20;0.40;;;11.60;27.00;;;;;;5048153;28;20485;-70
2024/01/18 09:16:01;;;;;;;2.70;0.30;;;11.60;27.00;;;;;;5049320;28;20464;-70
2024/01/18 09:18:30;;;;;;;3.33;0.40;;;11.50;26.80;;;;;;5046735;28;20473;-70
2024/01/18 09:20:56;;;;;;;3.13;0.60;;;11.50;26.70;;;;;;5048312;28;20467;-70
2024/01/18 09:23:23;;;;;;;2.73;0.30;;;11.50;26.60;;;;;;5042977;28;20988;-71
2024/01/18 09:25:50;;;;;;;2.70;0.30;;;11.70;26.20;;;;;;5048198;28;20454;-71
2024/01/18 09:28:16;;;;;;;2.80;0.37;;;11.80;25.80;;;;;;5047690;28;20484;-70
2024/01/18 09:30:43;;;;;;;3.00;0.40;;;11.80;25.40;;;;;;5046890;28;20462;-71
2024/01/18 09:33:11;;;;;;;2.87;0.40;;;11.80;25.40;;;;;;5048496;28;20500;-71
2024/01/18 09:35:40;;;;;;;2.77;0.50;;;11.70;25.40;;;;;;5047138;28;20989;-70
2024/01/18 09:38:10;;;;;;;2.77;0.40;;;11.70;25.30;;;;;;5047007;28;20500;-71
2024/01/18 09:40:38;;;;;;;2.80;0.40;;;11.70;25.20;;;;;;5043100;28;20462;-71
2024/01/18 09:43:08;;;;;;;3.20;0.47;;;11.70;25.50;;;;;;5048012;28;20466;-71
2024/01/18 09:45:39;;;;;;;3.10;0.40;;;11.70;25.40;;;;;;5044577;28;20462;-72
2024/01/18 09:48:07;;;;;;;3.13;0.67;;;11.70;25.80;;;;;;5040444;28;20565;-70
2024/01/18 09:50:37;;;;;;;3.20;0.83;;;11.70;26.10;;;;;;5042002;28;20469;-70
2024/01/18 09:53:05;;;;;;;2.87;0.50;;;11.70;26.30;;;;;;5046369;28;20473;-70
2024/01/18 09:55:32;;;;;;;3.40;0.50;;;11.70;26.40;;;;;;5046806;28;21091;-70
2024/01/18 09:58:03;;;;;;;3.77;0.70;;;11.70;26.80;;;;;;5044125;28;20811;-70
2024/01/18 10:00:32;;;;;;;3.00;0.40;;;11.80;26.90;;;;;;5045427;28;21091;-70
2024/01/18 10:02:59;;;;;;;3.10;0.50;;;11.80;26.60;;;;;;5046729;28;20466;-70
2024/01/18 10:05:26;;;;;;;3.30;0.53;;;11.80;26.70;;;;;;5047273;28;20458;-70
2024/01/18 10:07:53;;;;;;;3.30;0.40;;;11.70;27.00;;;;;;5047009;28;20486;-70
2024/01/18 10:10:21;;;;;;;3.43;0.70;;;11.70;27.10;;;;;;5048205;28;20454;-70
2024/01/18 10:12:48;;;;;;;2.70;0.40;;;11.60;27.10;;;;;;5046595;28;20576;-70
2024/01/18 10:15:32;;;;;;;3.00;0.57;;;11.60;27.30;;;;;;5044438;28;20489;-69
2024/01/18 10:17:59;;;;;;;2.90;0.50;;;11.70;27.30;;;;;;5045680;28;20476;-69
2024/01/18 10:20:26;;;;;;;3.00;0.50;;;11.60;27.30;;;;;;5047269;28;20585;-69
2024/01/18 10:22:54;;;;;;;3.00;0.50;;;11.70;27.40;;;;;;5046473;28;20465;-69
2024/01/18 10:25:25;;;;;;;2.90;0.57;;;11.80;27.50;;;;;;5045624;28;20556;-69
2024/01/18 10:27:53;;;;;;;2.93;0.60;;;11.80;27.10;;;;;;5046789;28;20474;-70
2024/01/18 10:30:20;;;;;;;2.90;0.50;;;11.80;26.80;;;;;;5043995;28;20459;-70
2024/01/18 10:32:47;;;;;;;3.23;0.60;;;11.80;27.00;;;;;;5045580;28;20461;-70
2024/01/18 10:35:20;;;;;;;3.20;0.50;;;11.80;27.10;;;;;;5046868;28;21125;-70
2024/01/18 10:37:48;;;;;;;3.10;0.70;;;11.80;26.90;;;;;;5046632;28;20840;-69
2024/01/18 10:40:19;;;;;;;3.23;0.60;;;11.80;27.30;;;;;;5047839;28;20510;-69
2024/01/18 10:42:48;;;;;;;3.00;0.53;;;12.10;27.50;;;;;;5039909;28;20880;-71
2024/01/18 10:45:17;;;;;;;3.10;0.50;;;12.30;26.10;;;;;;5047181;28;20548;-70
2024/01/18 10:47:45;;;;;;;3.20;0.60;;;12.40;25.60;;;;;;5043314;28;20513;-69
2024/01/18 10:50:11;;;;;;;3.50;0.60;;;12.50;25.10;;;;;;5047592;28;20456;-70
2024/01/18 10:52:40;;;;;;;4.60;0.60;;;12.70;24.70;;;;;;5045680;28;21206;-69
2024/01/18 10:55:09;;;;;;;2.80;0.47;;;12.90;23.60;;;;;;5045557;28;21041;-69
2024/01/18 10:57:36;;;;;;;4.03;0.40;;;12.90;23.10;;;;;;5044256;28;20493;-70
2024/01/18 11:00:07;;;;;;;2.80;0.40;;;13.10;23.30;;;;;;5043749;28;20472;-69
2024/01/18 11:02:39;;;;;;;2.80;0.50;;;13.30;22.10;;;;;;5046728;28;20478;-69
2024/01/18 11:05:09;;;;;;;2.90;0.40;;;13.30;21.00;;;;;;5046070;28;20453;-68
2024/01/18 11:07:37;;;;;;;3.00;0.30;;;13.30;20.90;;;;;;5048656;28;20857;-68
2024/01/18 11:10:06;;;;;;;2.80;0.30;;;13.40;20.90;;;;;;5050266;28;20958;-68
2024/01/18 11:12:35;;;;;;;3.00;0.47;;;13.60;20.40;;;;;;5048798;28;20476;-68
2024/01/18 11:15:05;;;;;;;3.10;0.47;;;13.80;19.90;;;;;;5048645;28;20490;-68
2024/01/18 11:17:31;;;;;;;2.90;0.40;;;14.00;19.30;;;;;;5050340;28;20486;-68
2024/01/18 11:20:01;;;;;;;3.87;0.30;;;14.20;18.50;;;;;;5049992;28;20923;-69
2024/01/18 11:22:30;;;;;;;3.03;0.50;;;14.50;17.60;;;;;;5043871;28;20465;-68
2024/01/18 11:25:07;;;;;;;2.90;0.50;;;14.70;17.20;;;;;;5049775;28;20460;-68
2024/01/18 11:27:38;;;;;;;2.90;0.60;;;14.70;16.30;;;;;;5049617;28;20580;-68
2024/01/18 11:30:11;;;;;;;3.87;0.60;;;14.90;16.00;;;;;;5049297;28;20453;-68
2024/01/18 11:32:39;;;;;;;2.90;0.40;;;15.40;15.10;;;;;;5049944;28;20466;-68
2024/01/18 11:35:10;;;;;;;2.70;0.40;;;15.80;13.30;;;;;;5050186;28;20481;-68
2024/01/18 11:37:38;;;;;;;2.70;0.40;;;16.10;12.10;;;;;;5048116;28;20490;-70
2024/01/18 11:40:07;;;;;;;2.77;0.33;;;16.00;11.90;;;;;;5045910;28;20950;-69
2024/01/18 11:42:34;;;;;;;2.97;0.50;;;15.70;12.00;;;;;;5052653;28;20465;-69
2024/01/18 11:45:03;;;;;;;3.07;0.40;;;15.40;12.40;;;;;;5049359;28;21003;-69
2024/01/18 11:47:32;;;;;;;3.60;0.40;;;15.30;13.00;;;;;;5048359;28;20486;-69
2024/01/18 11:50:01;;;;;;;2.70;0.40;;;15.30;13.40;;;;;;5048794;28;20450;-69
2024/01/18 11:52:28;;;;;;;3.13;0.40;;;15.20;13.20;;;;;;5046745;28;20466;-69
2024/01/18 11:54:57;;;;;;;2.70;0.30;;;15.20;13.20;;;;;;5042937;28;20477;-69
2024/01/18 11:57:24;;;;;;;2.90;0.50;;;15.10;13.40;;;;;;5047959;28;20489;-69
2024/01/18 11:59:51;;;;;;;2.67;0.30;;;15.00;13.70;;;;;;5049305;28;20533;-69
2024/01/18 12:02:18;;;;;;;3.67;0.63;;;14.90;13.50;;;;;;5048384;28;20485;-69
2024/01/18 12:04:48;;;;;;;3.10;0.50;;;14.70;13.50;;;;;;5046974;28;20462;-69
2024/01/18 12:07:15;;;;;;;3.00;0.43;;;14.50;14.10;;;;;;5050714;28;20585;-69
2024/01/18 12:09:43;;;;;;;2.80;0.40;;;14.30;14.40;;;;;;5049186;28;20458;-69
2024/01/18 12:12:10;;;;;;;2.90;0.60;;;14.20;14.80;;;;;;5046944;28;20825;-69
2024/01/18 12:14:40;;;;;;;2.80;0.40;;;14.10;15.40;;;;;;5053451;28;20477;-69
2024/01/18 12:17:08;;;;;;;3.23;0.50;;;14.10;15.60;;;;;;5048751;28;20517;-69
2024/01/18 12:19:36;;;;;;;4.90;0.60;;;13.90;15.80;;;;;;5061210;22;20589;-68
2024/01/18 12:22:07;;;;;;;3.10;0.70;;;13.80;16.10;;;;;;5043349;28;20463;-71
2024/01/18 12:24:34;;;;;;;3.87;1.23;;;13.70;14.10;;;;;;5046849;28;20465;-71
2024/01/18 12:27:02;;;;;;;3.90;1.00;;;13.30;10.30;;;;;;5045419;28;20610;-71
2024/01/18 12:29:31;;;;;;;6.13;2.00;;;12.80;8.20;;;;;;5043057;28;20514;-71
2024/01/18 12:31:58;;;;;;;6.00;2.10;;;12.30;8.50;;;;;;5029996;28;20906;-71
2024/01/18 12:34:28;;;;;;;3.87;0.90;;;11.80;9.30;;;;;;5024914;28;20527;-71
2024/01/18 12:36:54;;;;;;;4.77;1.07;;;11.30;9.80;;;;;;5024493;28;20574;-71
2024/01/18 12:39:23;;;;;;;4.50;0.97;;;10.80;10.40;;;;;;5026231;28;20466;-71
2024/01/18 12:41:52;;;;;;;3.13;0.73;;;10.30;10.90;;;;;;5032012;28;20455;-71
2024/01/18 12:44:19;;;;;;;2.93;0.67;;;9.90;11.80;;;;;;5023853;28;20455;-71
2024/01/18 12:46:48;;;;;;;3.43;0.80;;;9.50;12.90;;;;;;5021205;28;20562;-71
2024/01/18 12:49:16;;;;;;;6.43;1.47;;;9.10;13.70;;;;;;5028625;28;20554;-71
2024/01/18 12:51:44;;;;;;;5.67;1.80;;;8.90;14.70;;;;;;5020714;28;20485;-71
2024/01/18 12:54:11;;;;;;;6.00;2.00;;;8.70;15.30;;;;;;5020458;28;20499;-71